sensor_id;sensor_type;location;lat;lon;timestamp;pressure;altitude;pressure_sealevel;temperature
19061;BMP280;9663;48.996;8.334;2023-07-13T00:01:58;100243.09;;;24.59
19061;BMP280;9663;48.996;8.334;2023-07-13T00:04:24;100241.63;;;24.55
19061;BMP280;9663;48.996;8.334;2023-07-13T00:06:51;100250.31;;;24.54
19061;BMP280;9663;48.996;8.334;2023-07-13T00:09:19;100251.34;;;24.52
19061;BMP280;9663;48.996;8.334;2023-07-13T00:11:49;100248.75;;;24.52
19061;BMP280;9663;48.996;8.334;2023-07-13T00:14:15;100235.97;;;24.49
19061;BMP280;9663;48.996;8.334;2023-07-13T00:16:41;100240.44;;;24.47
19061;BMP280;9663;48.996;8.334;2023-07-13T00:19:10;100244.03;;;24.45
19061;BMP280;9663;48.996;8.334;2023-07-13T00:21:38;100241.53;;;24.43
19061;BMP280;9663;48.996;8.334;2023-07-13T00:24:05;100236.50;;;24.40
19061;BMP280;9663;48.996;8.334;2023-07-13T00:26:30;100240.88;;;24.40
19061;BMP280;9663;48.996;8.334;2023-07-13T00:28:58;100237.56;;;24.38
19061;BMP280;9663;48.996;8.334;2023-07-13T00:31:24;100237.63;;;24.36
19061;BMP280;9663;48.996;8.334;2023-07-13T00:33:51;100235.31;;;24.32
19061;BMP280;9663;48.996;8.334;2023-07-13T00:36:17;100238.06;;;24.29
19061;BMP280;9663;48.996;8.334;2023-07-13T00:38:43;100237.41;;;24.25
19061;BMP280;9663;48.996;8.334;2023-07-13T00:41:10;100240.94;;;24.24
19061;BMP280;9663;48.996;8.334;2023-07-13T00:43:36;100237.78;;;24.19
19061;BMP280;9663;48.996;8.334;2023-07-13T00:46:17;100243.31;;;24.13
19061;BMP280;9663;48.996;8.334;2023-07-13T00:48:46;100241.94;;;24.08
19061;BMP280;9663;48.996;8.334;2023-07-13T00:53:42;100240.16;;;23.95
19061;BMP280;9663;48.996;8.334;2023-07-13T00:56:09;100237.84;;;23.90
19061;BMP280;9663;48.996;8.334;2023-07-13T00:58:35;100244.28;;;23.83
19061;BMP280;9663;48.996;8.334;2023-07-13T01:01:01;100248.06;;;23.78
19061;BMP280;9663;48.996;8.334;2023-07-13T01:03:27;100250.94;;;23.73
19061;BMP280;9663;48.996;8.334;2023-07-13T01:05:53;100246.00;;;23.69
19061;BMP280;9663;48.996;8.334;2023-07-13T01:08:21;100247.94;;;23.65
19061;BMP280;9663;48.996;8.334;2023-07-13T01:10:55;100242.94;;;23.62
19061;BMP280;9663;48.996;8.334;2023-07-13T01:13:21;100248.19;;;23.61
19061;BMP280;9663;48.996;8.334;2023-07-13T01:15:51;100242.16;;;23.60
19061;BMP280;9663;48.996;8.334;2023-07-13T01:18:26;100247.34;;;23.60
19061;BMP280;9663;48.996;8.334;2023-07-13T01:21:02;100246.47;;;23.60
19061;BMP280;9663;48.996;8.334;2023-07-13T01:23:30;100247.50;;;23.58
19061;BMP280;9663;48.996;8.334;2023-07-13T01:25:58;100252.84;;;23.55
19061;BMP280;9663;48.996;8.334;2023-07-13T01:28:26;100245.41;;;23.49
19061;BMP280;9663;48.996;8.334;2023-07-13T01:30:54;100246.69;;;23.42
19061;BMP280;9663;48.996;8.334;2023-07-13T01:33:20;100249.72;;;23.34
19061;BMP280;9663;48.996;8.334;2023-07-13T01:35:47;100247.38;;;23.30
19061;BMP280;9663;48.996;8.334;2023-07-13T01:38:17;100242.53;;;23.24
19061;BMP280;9663;48.996;8.334;2023-07-13T01:40:44;100253.31;;;23.17
19061;BMP280;9663;48.996;8.334;2023-07-13T01:43:10;100256.31;;;23.09
19061;BMP280;9663;48.996;8.334;2023-07-13T01:45:36;100259.25;;;23.03
19061;BMP280;9663;48.996;8.334;2023-07-13T01:48:02;100249.22;;;22.97
19061;BMP280;9663;48.996;8.334;2023-07-13T01:50:28;100242.66;;;22.92
19061;BMP280;9663;48.996;8.334;2023-07-13T01:52:54;100249.72;;;22.88
19061;BMP280;9663;48.996;8.334;2023-07-13T01:55:21;100253.34;;;22.84
19061;BMP280;9663;48.996;8.334;2023-07-13T01:57:48;100256.28;;;22.78
19061;BMP280;9663;48.996;8.334;2023-07-13T02:00:15;100253.19;;;22.72
19061;BMP280;9663;48.996;8.334;2023-07-13T02:02:40;100256.19;;;22.65
19061;BMP280;9663;48.996;8.334;2023-07-13T02:05:07;100250.41;;;22.60
19061;BMP280;9663;48.996;8.334;2023-07-13T02:07:33;100250.75;;;22.54
19061;BMP280;9663;48.996;8.334;2023-07-13T02:09:58;100251.88;;;22.48
19061;BMP280;9663;48.996;8.334;2023-07-13T02:12:24;100258.16;;;22.44
19061;BMP280;9663;48.996;8.334;2023-07-13T02:14:50;100254.97;;;22.39
19061;BMP280;9663;48.996;8.334;2023-07-13T02:17:16;100246.69;;;22.33
19061;BMP280;9663;48.996;8.334;2023-07-13T02:19:41;100247.75;;;22.29
19061;BMP280;9663;48.996;8.334;2023-07-13T02:22:07;100256.59;;;22.25
19061;BMP280;9663;48.996;8.334;2023-07-13T02:24:33;100257.66;;;22.21
19061;BMP280;9663;48.996;8.334;2023-07-13T02:26:58;100260.50;;;22.15
19061;BMP280;9663;48.996;8.334;2023-07-13T02:29:24;100265.84;;;22.12
19061;BMP280;9663;48.996;8.334;2023-07-13T02:31:50;100263.56;;;22.06
19061;BMP280;9663;48.996;8.334;2023-07-13T02:34:16;100256.94;;;22.01
19061;BMP280;9663;48.996;8.334;2023-07-13T02:36:42;100253.75;;;21.96
19061;BMP280;9663;48.996;8.334;2023-07-13T02:39:08;100256.56;;;21.91
19061;BMP280;9663;48.996;8.334;2023-07-13T02:41:34;100252.47;;;21.87
19061;BMP280;9663;48.996;8.334;2023-07-13T02:44:00;100259.47;;;21.86
19061;BMP280;9663;48.996;8.334;2023-07-13T02:46:37;100260.53;;;21.82
19061;BMP280;9663;48.996;8.334;2023-07-13T02:49:03;100260.63;;;21.80
19061;BMP280;9663;48.996;8.334;2023-07-13T02:51:29;100259.00;;;21.78
19061;BMP280;9663;48.996;8.334;2023-07-13T02:53:55;100257.34;;;21.77
19061;BMP280;9663;48.996;8.334;2023-07-13T02:56:26;100257.44;;;21.75
19061;BMP280;9663;48.996;8.334;2023-07-13T02:58:53;100257.44;;;21.75
19061;BMP280;9663;48.996;8.334;2023-07-13T03:01:20;100260.00;;;21.75
19061;BMP280;9663;48.996;8.334;2023-07-13T03:03:49;100260.84;;;21.76
19061;BMP280;9663;48.996;8.334;2023-07-13T03:06:16;100261.66;;;21.76
19061;BMP280;9663;48.996;8.334;2023-07-13T03:08:43;100263.28;;;21.79
19061;BMP280;9663;48.996;8.334;2023-07-13T03:11:16;100263.19;;;21.80
19061;BMP280;9663;48.996;8.334;2023-07-13T03:13:43;100268.44;;;21.79
19061;BMP280;9663;48.996;8.334;2023-07-13T03:16:10;100272.81;;;21.77
19061;BMP280;9663;48.996;8.334;2023-07-13T03:18:36;100268.59;;;21.76
19061;BMP280;9663;48.996;8.334;2023-07-13T03:21:04;100268.66;;;21.74
19061;BMP280;9663;48.996;8.334;2023-07-13T03:23:30;100264.47;;;21.72
19061;BMP280;9663;48.996;8.334;2023-07-13T03:26:17;100265.59;;;21.66
19061;BMP280;9663;48.996;8.334;2023-07-13T03:28:44;100260.38;;;21.68
19061;BMP280;9663;48.996;8.334;2023-07-13T03:31:17;100264.72;;;21.67
19061;BMP280;9663;48.996;8.334;2023-07-13T03:33:45;100268.19;;;21.66
19061;BMP280;9663;48.996;8.334;2023-07-13T03:36:18;100270.84;;;21.65
19061;BMP280;9663;48.996;8.334;2023-07-13T03:38:50;100283.00;;;21.63
19061;BMP280;9663;48.996;8.334;2023-07-13T03:41:16;100284.88;;;21.59
19061;BMP280;9663;48.996;8.334;2023-07-13T03:43:42;100290.06;;;21.59
19061;BMP280;9663;48.996;8.334;2023-07-13T03:46:09;100297.88;;;21.58
19061;BMP280;9663;48.996;8.334;2023-07-13T03:48:35;100285.03;;;21.56
19061;BMP280;9663;48.996;8.334;2023-07-13T03:51:01;100282.44;;;21.56
19061;BMP280;9663;48.996;8.334;2023-07-13T03:53:27;100291.81;;;21.59
19061;BMP280;9663;48.996;8.334;2023-07-13T03:55:53;100294.28;;;21.60
19061;BMP280;9663;48.996;8.334;2023-07-13T03:58:33;100295.13;;;21.61
19061;BMP280;9663;48.996;8.334;2023-07-13T04:01:00;100296.56;;;21.66
19061;BMP280;9663;48.996;8.334;2023-07-13T04:03:27;100303.44;;;21.67
19061;BMP280;9663;48.996;8.334;2023-07-13T04:05:55;100306.69;;;21.71
19061;BMP280;9663;48.996;8.334;2023-07-13T04:08:29;100305.88;;;21.70
19061;BMP280;9663;48.996;8.334;2023-07-13T04:10:56;100305.88;;;21.70
19061;BMP280;9663;48.996;8.334;2023-07-13T04:13:23;100305.88;;;21.70
19061;BMP280;9663;48.996;8.334;2023-07-13T04:15:50;100305.09;;;21.68
19061;BMP280;9663;48.996;8.334;2023-07-13T04:18:16;100310.31;;;21.67
19061;BMP280;9663;48.996;8.334;2023-07-13T04:20:42;100309.56;;;21.65
19061;BMP280;9663;48.996;8.334;2023-07-13T04:23:08;100312.13;;;21.65
19061;BMP280;9663;48.996;8.334;2023-07-13T04:25:33;100311.25;;;21.66
19061;BMP280;9663;48.996;8.334;2023-07-13T04:27:59;100311.03;;;21.70
19061;BMP280;9663;48.996;8.334;2023-07-13T04:30:25;100316.88;;;21.74
19061;BMP280;9663;48.996;8.334;2023-07-13T04:32:52;100315.75;;;21.79
19061;BMP280;9663;48.996;8.334;2023-07-13T04:35:21;100316.28;;;21.86
19061;BMP280;9663;48.996;8.334;2023-07-13T04:37:50;100329.72;;;21.92
19061;BMP280;9663;48.996;8.334;2023-07-13T04:40:20;100330.13;;;22.01
19061;BMP280;9663;48.996;8.334;2023-07-13T04:42:46;100325.25;;;22.12
19061;BMP280;9663;48.996;8.334;2023-07-13T04:45:14;100320.41;;;22.23
19061;BMP280;9663;48.996;8.334;2023-07-13T04:47:41;100326.78;;;22.33
19061;BMP280;9663;48.996;8.334;2023-07-13T04:50:08;100330.44;;;22.46
19061;BMP280;9663;48.996;8.334;2023-07-13T04:52:36;100337.69;;;22.55
19061;BMP280;9663;48.996;8.334;2023-07-13T04:55:03;100342.50;;;22.62
19061;BMP280;9663;48.996;8.334;2023-07-13T04:57:30;100331.88;;;22.67
19061;BMP280;9663;48.996;8.334;2023-07-13T04:59:55;100338.59;;;22.71
19061;BMP280;9663;48.996;8.334;2023-07-13T05:02:21;100325.50;;;22.73
19061;BMP280;9663;48.996;8.334;2023-07-13T05:04:48;100334.75;;;22.77
19061;BMP280;9663;48.996;8.334;2023-07-13T05:07:14;100331.09;;;22.81
19061;BMP280;9663;48.996;8.334;2023-07-13T05:09:39;100335.19;;;22.85
19061;BMP280;9663;48.996;8.334;2023-07-13T05:12:10;100332.38;;;22.90
19061;BMP280;9663;48.996;8.334;2023-07-13T05:14:37;100333.91;;;22.94
19061;BMP280;9663;48.996;8.334;2023-07-13T05:17:03;100332.75;;;22.99
19061;BMP280;9663;48.996;8.334;2023-07-13T05:19:29;100334.19;;;23.05
19061;BMP280;9663;48.996;8.334;2023-07-13T05:21:55;100334.78;;;23.10
19061;BMP280;9663;48.996;8.334;2023-07-13T05:24:21;100331.19;;;23.12
19061;BMP280;9663;48.996;8.334;2023-07-13T05:26:47;100338.78;;;23.15
19061;BMP280;9663;48.996;8.334;2023-07-13T05:29:13;100337.88;;;23.16
19061;BMP280;9663;48.996;8.334;2023-07-13T05:31:38;100338.78;;;23.15
19061;BMP280;9663;48.996;8.334;2023-07-13T05:34:04;100340.34;;;23.17
19061;BMP280;9663;48.996;8.334;2023-07-13T05:36:30;100337.44;;;23.23
19061;BMP280;9663;48.996;8.334;2023-07-13T05:38:55;100340.47;;;23.31
19061;BMP280;9663;48.996;8.334;2023-07-13T05:41:21;100343.56;;;23.38
19061;BMP280;9663;48.996;8.334;2023-07-13T05:43:47;100350.22;;;23.42
19061;BMP280;9663;48.996;8.334;2023-07-13T05:46:13;100345.91;;;23.42
19061;BMP280;9663;48.996;8.334;2023-07-13T05:48:39;100350.06;;;23.45
19061;BMP280;9663;48.996;8.334;2023-07-13T05:51:04;100355.72;;;23.51
19061;BMP280;9663;48.996;8.334;2023-07-13T05:53:30;100357.88;;;23.58
19061;BMP280;9663;48.996;8.334;2023-07-13T05:55:56;100363.44;;;23.68
19061;BMP280;9663;48.996;8.334;2023-07-13T05:58:22;100367.19;;;23.78
19061;BMP280;9663;48.996;8.334;2023-07-13T06:00:48;100369.19;;;23.88
19061;BMP280;9663;48.996;8.334;2023-07-13T06:03:15;100368.56;;;23.99
19061;BMP280;9663;48.996;8.334;2023-07-13T06:05:41;100367.03;;;24.10
19061;BMP280;9663;48.996;8.334;2023-07-13T06:08:08;100380.09;;;24.22
19061;BMP280;9663;48.996;8.334;2023-07-13T06:10:35;100369.91;;;24.35
19061;BMP280;9663;48.996;8.334;2023-07-13T06:13:01;100381.34;;;24.46
19061;BMP280;9663;48.996;8.334;2023-07-13T06:15:28;100380.69;;;24.56
19061;BMP280;9663;48.996;8.334;2023-07-13T06:17:54;100389.59;;;24.66
19061;BMP280;9663;48.996;8.334;2023-07-13T06:20:19;100394.59;;;24.69
19061;BMP280;9663;48.996;8.334;2023-07-13T06:22:45;100399.63;;;24.72
19061;BMP280;9663;48.996;8.334;2023-07-13T06:25:11;100405.53;;;24.74
19061;BMP280;9663;48.996;8.334;2023-07-13T06:27:37;100402.78;;;24.77
19061;BMP280;9663;48.996;8.334;2023-07-13T06:30:03;100406.94;;;24.80
19061;BMP280;9663;48.996;8.334;2023-07-13T06:32:28;100416.13;;;24.85
19061;BMP280;9663;48.996;8.334;2023-07-13T06:34:54;100414.09;;;24.90
19061;BMP280;9663;48.996;8.334;2023-07-13T06:37:20;100418.84;;;24.97
19061;BMP280;9663;48.996;8.334;2023-07-13T06:39:45;100420.25;;;25.03
19061;BMP280;9663;48.996;8.334;2023-07-13T06:42:11;100411.34;;;25.07
19061;BMP280;9663;48.996;8.334;2023-07-13T06:44:37;100422.28;;;25.12
19061;BMP280;9663;48.996;8.334;2023-07-13T06:47:03;100421.06;;;25.17
19061;BMP280;9663;48.996;8.334;2023-07-13T06:49:29;100425.06;;;25.23
19061;BMP280;9663;48.996;8.334;2023-07-13T06:51:54;100420.25;;;25.31
19061;BMP280;9663;48.996;8.334;2023-07-13T06:54:20;100420.59;;;25.38
19061;BMP280;9663;48.996;8.334;2023-07-13T06:56:46;100419.94;;;25.49
19061;BMP280;9663;48.996;8.334;2023-07-13T06:59:12;100419.53;;;25.55
19061;BMP280;9663;48.996;8.334;2023-07-13T07:01:37;100426.06;;;25.62
19061;BMP280;9663;48.996;8.334;2023-07-13T07:04:04;100414.28;;;25.70
19061;BMP280;9663;48.996;8.334;2023-07-13T07:06:30;100417.97;;;25.80
19061;BMP280;9663;48.996;8.334;2023-07-13T07:08:55;100424.31;;;25.88
19061;BMP280;9663;48.996;8.334;2023-07-13T07:11:25;100416.03;;;25.96
19061;BMP280;9663;48.996;8.334;2023-07-13T07:13:53;100424.16;;;26.04
19061;BMP280;9663;48.996;8.334;2023-07-13T07:16:20;100419.31;;;26.12
19061;BMP280;9663;48.996;8.334;2023-07-13T07:18:47;100429.00;;;26.22
19061;BMP280;9663;48.996;8.334;2023-07-13T07:21:14;100428.38;;;26.32
19061;BMP280;9663;48.996;8.334;2023-07-13T07:23:40;100428.47;;;26.43
19061;BMP280;9663;48.996;8.334;2023-07-13T07:26:06;100426.72;;;26.56
19061;BMP280;9663;48.996;8.334;2023-07-13T07:28:34;100437.06;;;26.70
19061;BMP280;9663;48.996;8.334;2023-07-13T07:30:59;100435.41;;;26.81
19061;BMP280;9663;48.996;8.334;2023-07-13T07:33:25;100430.44;;;26.91
19061;BMP280;9663;48.996;8.334;2023-07-13T07:35:52;100439.28;;;27.01
19061;BMP280;9663;48.996;8.334;2023-07-13T07:38:18;100441.28;;;27.09
19061;BMP280;9663;48.996;8.334;2023-07-13T07:40:44;100443.53;;;27.14
19061;BMP280;9663;48.996;8.334;2023-07-13T07:43:12;100439.50;;;27.22
19061;BMP280;9663;48.996;8.334;2023-07-13T07:45:39;100441.56;;;27.30
19061;BMP280;9663;48.996;8.334;2023-07-13T07:48:06;100449.66;;;27.38
19061;BMP280;9663;48.996;8.334;2023-07-13T07:50:32;100442.91;;;27.48
19061;BMP280;9663;48.996;8.334;2023-07-13T07:52:58;100436.22;;;27.56
19061;BMP280;9663;48.996;8.334;2023-07-13T07:55:25;100445.16;;;27.64
19061;BMP280;9663;48.996;8.334;2023-07-13T07:57:55;100439.31;;;27.73
19061;BMP280;9663;48.996;8.334;2023-07-13T08:00:21;100437.59;;;27.85
19061;BMP280;9663;48.996;8.334;2023-07-13T08:02:47;100442.16;;;27.94
19061;BMP280;9663;48.996;8.334;2023-07-13T08:05:13;100445.03;;;28.01
19061;BMP280;9663;48.996;8.334;2023-07-13T08:07:40;100434.41;;;28.04
19061;BMP280;9663;48.996;8.334;2023-07-13T08:10:06;100435.03;;;28.08
19061;BMP280;9663;48.996;8.334;2023-07-13T08:12:37;100437.81;;;28.17
19061;BMP280;9663;48.996;8.334;2023-07-13T08:15:05;100442.72;;;28.33
19061;BMP280;9663;48.996;8.334;2023-07-13T08:17:31;100441.38;;;28.50
19061;BMP280;9663;48.996;8.334;2023-07-13T08:19:57;100438.47;;;28.66
19061;BMP280;9663;48.996;8.334;2023-07-13T08:22:22;100435.03;;;28.76
19061;BMP280;9663;48.996;8.334;2023-07-13T08:24:48;100439.47;;;28.86
19061;BMP280;9663;48.996;8.334;2023-07-13T08:27:21;100445.66;;;28.96
19061;BMP280;9663;48.996;8.334;2023-07-13T08:29:48;100446.38;;;29.09
19061;BMP280;9663;48.996;8.334;2023-07-13T08:32:14;100445.19;;;29.13
19061;BMP280;9663;48.996;8.334;2023-07-13T08:34:40;100432.97;;;29.14
19061;BMP280;9663;48.996;8.334;2023-07-13T08:37:07;100446.13;;;29.12
19061;BMP280;9663;48.996;8.334;2023-07-13T08:39:33;100437.25;;;29.15
19061;BMP280;9663;48.996;8.334;2023-07-13T08:42:07;100434.78;;;29.24
19061;BMP280;9663;48.996;8.334;2023-07-13T08:47:37;100431.22;;;29.36
19061;BMP280;9663;48.996;8.334;2023-07-13T08:50:05;100435.72;;;29.45
19061;BMP280;9663;48.996;8.334;2023-07-13T08:52:40;100446.75;;;29.59
19061;BMP280;9663;48.996;8.334;2023-07-13T08:55:20;100443.03;;;29.72
19061;BMP280;9663;48.996;8.334;2023-07-13T08:58:01;100432.38;;;29.86
19061;BMP280;9663;48.996;8.334;2023-07-13T09:00:48;100427.81;;;29.99
19061;BMP280;9663;48.996;8.334;2023-07-13T09:03:22;100429.88;;;30.16
19061;BMP280;9663;48.996;8.334;2023-07-13T09:05:59;100430.09;;;30.24
19061;BMP280;9663;48.996;8.334;2023-07-13T09:09:00;100435.59;;;30.10
19061;BMP280;9663;48.996;8.334;2023-07-13T09:11:47;100438.91;;;30.12
19061;BMP280;9663;48.996;8.334;2023-07-13T09:14:43;100435.00;;;30.17
19061;BMP280;9663;48.996;8.334;2023-07-13T09:17:24;100434.72;;;30.31
19061;BMP280;9663;48.996;8.334;2023-07-13T09:22:38;100427.56;;;30.33
19061;BMP280;9663;48.996;8.334;2023-07-13T09:25:38;100427.47;;;30.24
19061;BMP280;9663;48.996;8.334;2023-07-13T09:28:22;100431.38;;;30.40
19061;BMP280;9663;48.996;8.334;2023-07-13T09:31:01;100435.69;;;30.51
19061;BMP280;9663;48.996;8.334;2023-07-13T09:33:28;100430.53;;;30.60
19061;BMP280;9663;48.996;8.334;2023-07-13T09:35:57;100427.13;;;30.69
19061;BMP280;9663;48.996;8.334;2023-07-13T09:38:27;100429.94;;;30.77
19061;BMP280;9663;48.996;8.334;2023-07-13T09:41:18;100429.44;;;30.83
19061;BMP280;9663;48.996;8.334;2023-07-13T09:44:13;100430.63;;;30.90
19061;BMP280;9663;48.996;8.334;2023-07-13T09:46:52;100419.66;;;31.05
19061;BMP280;9663;48.996;8.334;2023-07-13T09:49:18;100420.84;;;31.21
19061;BMP280;9663;48.996;8.334;2023-07-13T09:51:44;100418.69;;;31.36
19061;BMP280;9663;48.996;8.334;2023-07-13T09:54:20;100420.81;;;31.51
19061;BMP280;9663;48.996;8.334;2023-07-13T09:56:46;100428.03;;;31.58
19061;BMP280;9663;48.996;8.334;2023-07-13T09:59:26;100430.25;;;31.63
19061;BMP280;9663;48.996;8.334;2023-07-13T10:01:52;100422.38;;;31.63
19061;BMP280;9663;48.996;8.334;2023-07-13T10:04:27;100420.88;;;31.60
19061;BMP280;9663;48.996;8.334;2023-07-13T10:07:09;100424.00;;;31.54
19061;BMP280;9663;48.996;8.334;2023-07-13T10:09:35;100421.25;;;31.56
19061;BMP280;9663;48.996;8.334;2023-07-13T10:12:01;100411.31;;;31.59
19061;BMP280;9663;48.996;8.334;2023-07-13T10:14:28;100415.75;;;31.59
19061;BMP280;9663;48.996;8.334;2023-07-13T10:17:00;100414.50;;;31.63
19061;BMP280;9663;48.996;8.334;2023-07-13T10:19:32;100409.25;;;31.63
19061;BMP280;9663;48.996;8.334;2023-07-13T10:22:14;100417.41;;;31.60
19061;BMP280;9663;48.996;8.334;2023-07-13T10:24:42;100400.84;;;31.59
19061;BMP280;9663;48.996;8.334;2023-07-13T10:27:31;100405.13;;;31.60
19061;BMP280;9663;48.996;8.334;2023-07-13T10:30:27;100403.75;;;31.66
19061;BMP280;9663;48.996;8.334;2023-07-13T10:33:02;100402.81;;;31.86
19061;BMP280;9663;48.996;8.334;2023-07-13T10:35:30;100403.03;;;32.03
19061;BMP280;9663;48.996;8.334;2023-07-13T10:38:12;100410.59;;;32.15
19061;BMP280;9663;48.996;8.334;2023-07-13T10:41:01;100401.78;;;32.26
19061;BMP280;9663;48.996;8.334;2023-07-13T10:43:53;100404.53;;;32.33
19061;BMP280;9663;48.996;8.334;2023-07-13T10:46:24;100403.03;;;32.50
19061;BMP280;9663;48.996;8.334;2023-07-13T10:48:58;100400.78;;;32.64
19061;BMP280;9663;48.996;8.334;2023-07-13T10:51:27;100404.06;;;32.76
19061;BMP280;9663;48.996;8.334;2023-07-13T10:57:19;100404.72;;;33.06
19061;BMP280;9663;48.996;8.334;2023-07-13T11:00:18;100392.94;;;33.10
19061;BMP280;9663;48.996;8.334;2023-07-13T11:02:57;100401.88;;;33.17
19061;BMP280;9663;48.996;8.334;2023-07-13T11:05:32;100402.13;;;33.23
19061;BMP280;9663;48.996;8.334;2023-07-13T11:08:32;100399.50;;;33.23
19061;BMP280;9663;48.996;8.334;2023-07-13T11:10:59;100396.88;;;33.23
19061;BMP280;9663;48.996;8.334;2023-07-13T11:16:42;100388.63;;;33.09
19061;BMP280;9663;48.996;8.334;2023-07-13T11:25:02;100382.34;;;33.28
19061;BMP280;9663;48.996;8.334;2023-07-13T11:27:51;100380.19;;;33.41
19061;BMP280;9663;48.996;8.334;2023-07-13T11:36:17;100371.97;;;35.49
19061;BMP280;9663;48.996;8.334;2023-07-13T11:39:10;100374.88;;;36.74
19061;BMP280;9663;48.996;8.334;2023-07-13T11:41:52;100361.38;;;37.83
19061;BMP280;9663;48.996;8.334;2023-07-13T11:44:24;100369.78;;;37.87
19061;BMP280;9663;48.996;8.334;2023-07-13T11:46:53;100362.38;;;38.05
19061;BMP280;9663;48.996;8.334;2023-07-13T11:49:25;100366.00;;;38.48
19061;BMP280;9663;48.996;8.334;2023-07-13T11:51:55;100364.22;;;38.63
19061;BMP280;9663;48.996;8.334;2023-07-13T11:54:41;100365.34;;;38.46
19061;BMP280;9663;48.996;8.334;2023-07-13T11:57:36;100365.44;;;38.52
19061;BMP280;9663;48.996;8.334;2023-07-13T12:00:15;100356.53;;;38.82
19061;BMP280;9663;48.996;8.334;2023-07-13T12:02:46;100354.88;;;39.24
19061;BMP280;9663;48.996;8.334;2023-07-13T12:05:15;100361.78;;;39.54
19061;BMP280;9663;48.996;8.334;2023-07-13T12:07:44;100363.09;;;39.99
19061;BMP280;9663;48.996;8.334;2023-07-13T12:10:30;100353.13;;;40.22
19061;BMP280;9663;48.996;8.334;2023-07-13T12:13:05;100353.09;;;40.43
19061;BMP280;9663;48.996;8.334;2023-07-13T12:15:40;100352.16;;;40.84
19061;BMP280;9663;48.996;8.334;2023-07-13T12:18:19;100348.03;;;41.15
19061;BMP280;9663;48.996;8.334;2023-07-13T12:20:47;100343.09;;;41.65
19061;BMP280;9663;48.996;8.334;2023-07-13T12:23:34;100337.44;;;42.19
19061;BMP280;9663;48.996;8.334;2023-07-13T12:26:06;100350.97;;;42.37
19061;BMP280;9663;48.996;8.334;2023-07-13T12:28:51;100343.38;;;42.60
19061;BMP280;9663;48.996;8.334;2023-07-13T12:31:36;100334.09;;;42.75
19061;BMP280;9663;48.996;8.334;2023-07-13T12:36:52;100341.47;;;42.80
19061;BMP280;9663;48.996;8.334;2023-07-13T12:39:25;100339.81;;;42.98
19061;BMP280;9663;48.996;8.334;2023-07-13T12:41:53;100353.34;;;42.96
19061;BMP280;9663;48.996;8.334;2023-07-13T12:44:29;100345.03;;;42.35
19061;BMP280;9663;48.996;8.334;2023-07-13T12:47:05;100350.53;;;41.76
19061;BMP280;9663;48.996;8.334;2023-07-13T12:49:33;100351.06;;;41.65
19061;BMP280;9663;48.996;8.334;2023-07-13T12:52:16;100351.75;;;41.86
19061;BMP280;9663;48.996;8.334;2023-07-13T12:54:52;100350.56;;;42.14
19061;BMP280;9663;48.996;8.334;2023-07-13T12:57:18;100346.06;;;42.08
19061;BMP280;9663;48.996;8.334;2023-07-13T12:59:44;100355.00;;;41.75
19061;BMP280;9663;48.996;8.334;2023-07-13T13:02:33;100347.97;;;41.02
19061;BMP280;9663;48.996;8.334;2023-07-13T13:05:01;100357.19;;;40.72
19061;BMP280;9663;48.996;8.334;2023-07-13T13:07:29;100350.34;;;40.09
19061;BMP280;9663;48.996;8.334;2023-07-13T13:09:55;100360.97;;;39.25
19061;BMP280;9663;48.996;8.334;2023-07-13T13:12:22;100359.00;;;39.12
19061;BMP280;9663;48.996;8.334;2023-07-13T13:14:51;100351.78;;;39.70
19061;BMP280;9663;48.996;8.334;2023-07-13T13:17:29;100356.91;;;40.61
19061;BMP280;9663;48.996;8.334;2023-07-13T13:19:56;100338.56;;;41.53
19061;BMP280;9663;48.996;8.334;2023-07-13T13:22:22;100339.50;;;42.30
19061;BMP280;9663;48.996;8.334;2023-07-13T13:24:49;100348.69;;;42.73
19061;BMP280;9663;48.996;8.334;2023-07-13T13:27:21;100339.41;;;42.82
19061;BMP280;9663;48.996;8.334;2023-07-13T13:29:50;100333.88;;;42.96
19061;BMP280;9663;48.996;8.334;2023-07-13T13:32:17;100341.03;;;43.02
19061;BMP280;9663;48.996;8.334;2023-07-13T13:34:44;100337.66;;;43.19
19061;BMP280;9663;48.996;8.334;2023-07-13T13:37:28;100340.09;;;43.34
19061;BMP280;9663;48.996;8.334;2023-07-13T13:39:54;100333.75;;;43.28
19061;BMP280;9663;48.996;8.334;2023-07-13T13:42:21;100334.19;;;43.19
19061;BMP280;9663;48.996;8.334;2023-07-13T13:44:50;100338.16;;;43.03
19061;BMP280;9663;48.996;8.334;2023-07-13T13:47:31;100351.16;;;42.61
19061;BMP280;9663;48.996;8.334;2023-07-13T13:49:57;100343.19;;;42.55
19061;BMP280;9663;48.996;8.334;2023-07-13T13:52:26;100338.25;;;42.39
19061;BMP280;9663;48.996;8.334;2023-07-13T13:54:52;100341.97;;;42.12
19061;BMP280;9663;48.996;8.334;2023-07-13T13:57:24;100345.22;;;41.89
19061;BMP280;9663;48.996;8.334;2023-07-13T13:59:53;100345.66;;;41.39
19061;BMP280;9663;48.996;8.334;2023-07-13T14:02:29;100348.34;;;40.66
19061;BMP280;9663;48.996;8.334;2023-07-13T14:05:00;100351.66;;;39.99
19061;BMP280;9663;48.996;8.334;2023-07-13T14:07:27;100344.41;;;39.51
19061;BMP280;9663;48.996;8.334;2023-07-13T14:09:58;100357.25;;;39.19
19061;BMP280;9663;48.996;8.334;2023-07-13T14:12:25;100350.53;;;39.02
19061;BMP280;9663;48.996;8.334;2023-07-13T14:14:55;100340.94;;;38.87
19061;BMP280;9663;48.996;8.334;2023-07-13T14:17:25;100354.03;;;38.52
19061;BMP280;9663;48.996;8.334;2023-07-13T14:19:52;100346.97;;;38.08
19061;BMP280;9663;48.996;8.334;2023-07-13T14:22:24;100354.31;;;37.76
19061;BMP280;9663;48.996;8.334;2023-07-13T14:24:53;100357.41;;;37.57
19061;BMP280;9663;48.996;8.334;2023-07-13T14:27:19;100355.91;;;37.55
19061;BMP280;9663;48.996;8.334;2023-07-13T14:29:45;100354.72;;;37.65
19061;BMP280;9663;48.996;8.334;2023-07-13T14:32:12;100357.84;;;37.91
19061;BMP280;9663;48.996;8.334;2023-07-13T14:34:38;100357.13;;;37.97
19061;BMP280;9663;48.996;8.334;2023-07-13T14:37:05;100363.22;;;38.05
19061;BMP280;9663;48.996;8.334;2023-07-13T14:39:35;100356.50;;;38.53
19061;BMP280;9663;48.996;8.334;2023-07-13T14:42:01;100356.38;;;38.98
19061;BMP280;9663;48.996;8.334;2023-07-13T14:44:30;100351.00;;;39.41
19061;BMP280;9663;48.996;8.334;2023-07-13T14:46:59;100353.94;;;39.81
19061;BMP280;9663;48.996;8.334;2023-07-13T14:49:34;100342.47;;;40.01
19061;BMP280;9663;48.996;8.334;2023-07-13T14:52:11;100351.22;;;39.75
19061;BMP280;9663;48.996;8.334;2023-07-13T14:54:37;100347.72;;;39.25